Time;durP1;ratioP1;P1;durP2;ratioP2;P2;SDS_P1;SDS_P2;PMS_P1;PMS_P2;Temp;Humidity;BMP_temperature;BMP_pressure;BME280_temperature;BME280_humidity;BME280_pressure;Samples;Min_cycle;Max_cycle;Signal;HPM_P1;HPM_P2
2021/03/07 00:00:18;;;;;;;17.02;6.20;;;3.00;87.60;;;;;;5114803;28;20020;-72
2021/03/07 00:02:44;;;;;;;13.60;5.03;;;2.90;87.60;;;;;;5114338;28;20012;-72
2021/03/07 00:05:12;;;;;;;16.58;6.07;;;2.90;87.60;;;;;;5114334;28;20082;-72
2021/03/07 00:07:37;;;;;;;9.65;4.22;;;2.90;88.30;;;;;;5114505;28;20011;-73
2021/03/07 00:10:05;;;;;;;8.88;4.65;;;2.90;88.80;;;;;;5115873;28;20022;-73
2021/03/07 00:12:31;;;;;;;15.43;5.55;;;2.90;88.60;;;;;;5116013;28;20012;-73
2021/03/07 00:14:57;;;;;;;10.93;4.40;;;2.90;88.00;;;;;;5114411;28;20015;-73
2021/03/07 00:17:22;;;;;;;12.73;5.28;;;2.90;88.50;;;;;;5114508;28;20023;-72
2021/03/07 00:19:48;;;;;;;9.73;4.90;;;2.90;90.00;;;;;;5115647;28;20061;-72
2021/03/07 00:22:15;;;;;;;13.25;5.00;;;2.90;89.60;;;;;;5115700;28;20415;-73
2021/03/07 00:24:40;;;;;;;9.32;3.90;;;2.90;89.90;;;;;;5114278;28;20099;-73
2021/03/07 00:27:06;;;;;;;11.35;4.97;;;2.90;90.50;;;;;;5115622;28;20058;-72
2021/03/07 00:29:31;;;;;;;13.82;4.68;;;2.90;90.40;;;;;;5115283;28;20016;-72
2021/03/07 00:31:58;;;;;;;11.07;5.25;;;2.90;89.30;;;;;;5115394;28;20429;-72
2021/03/07 00:34:24;;;;;;;7.38;3.88;;;2.90;88.70;;;;;;5114116;28;20011;-74
2021/03/07 00:36:50;;;;;;;11.45;5.70;;;2.90;90.20;;;;;;5115084;28;20032;-73
2021/03/07 00:39:15;;;;;;;11.48;4.63;;;2.90;89.60;;;;;;5113503;28;20058;-72
2021/03/07 00:41:42;;;;;;;12.55;5.88;;;2.80;89.10;;;;;;5115089;28;20023;-72
2021/03/07 00:44:09;;;;;;;12.70;5.15;;;2.80;89.50;;;;;;5113925;28;20023;-73
2021/03/07 00:46:43;;;;;;;10.35;4.10;;;2.90;88.80;;;;;;5114573;28;20020;-73
2021/03/07 00:49:09;;;;;;;8.88;3.40;;;2.90;88.90;;;;;;5113456;28;20058;-72
2021/03/07 00:51:35;;;;;;;14.70;6.35;;;2.80;88.80;;;;;;5114871;28;20050;-72
2021/03/07 00:54:01;;;;;;;13.55;5.15;;;2.80;89.90;;;;;;5113700;28;20027;-72
2021/03/07 00:56:26;;;;;;;11.13;5.18;;;2.80;89.40;;;;;;5113564;28;20050;-72
2021/03/07 00:58:52;;;;;;;9.90;5.10;;;2.80;89.00;;;;;;5114677;28;20016;-74
2021/03/07 01:01:18;;;;;;;10.70;5.55;;;2.80;89.20;;;;;;5113579;28;20022;-72
2021/03/07 01:03:44;;;;;;;8.32;3.85;;;2.80;90.50;;;;;;5113220;28;20020;-73
2021/03/07 01:06:10;;;;;;;7.93;4.28;;;2.80;90.20;;;;;;5113294;28;20581;-73
2021/03/07 01:08:36;;;;;;;9.68;5.43;;;2.80;89.90;;;;;;5113199;28;20110;-73
2021/03/07 01:11:02;;;;;;;11.90;6.47;;;2.80;89.30;;;;;;5113350;28;20020;-73
2021/03/07 01:13:27;;;;;;;13.80;5.03;;;2.80;89.10;;;;;;5114428;28;20094;-73
2021/03/07 01:15:53;;;;;;;14.73;5.10;;;2.80;88.70;;;;;;5113060;28;20480;-73
2021/03/07 01:18:19;;;;;;;14.18;4.80;;;2.70;88.30;;;;;;5114666;28;20020;-73
2021/03/07 01:20:46;;;;;;;10.57;5.55;;;2.70;88.10;;;;;;5114371;28;20098;-73
2021/03/07 01:23:14;;;;;;;9.07;4.30;;;2.70;88.00;;;;;;5113166;28;20016;-73
2021/03/07 01:25:40;;;;;;;12.50;5.82;;;2.70;87.80;;;;;;5114161;28;20027;-73
2021/03/07 01:28:06;;;;;;;18.60;5.45;;;2.70;88.30;;;;;;5114295;28;20366;-73
2021/03/07 01:30:34;;;;;;;9.50;4.97;;;2.70;88.10;;;;;;5112633;28;20020;-73
2021/03/07 01:33:00;;;;;;;14.13;5.78;;;2.70;87.30;;;;;;5112795;28;20020;-73
2021/03/07 01:35:25;;;;;;;15.35;6.40;;;2.60;87.30;;;;;;5114161;28;20080;-73
2021/03/07 01:37:51;;;;;;;15.32;6.18;;;2.60;87.40;;;;;;5112720;28;20079;-73
2021/03/07 01:40:23;;;;;;;11.45;5.63;;;2.60;87.40;;;;;;5112425;28;20030;-73
2021/03/07 01:42:55;;;;;;;11.55;4.35;;;2.60;87.60;;;;;;5113605;28;20016;-73
2021/03/07 01:45:27;;;;;;;11.48;4.82;;;2.60;87.70;;;;;;5113770;28;20069;-73
2021/03/07 01:47:58;;;;;;;14.77;6.80;;;2.50;87.40;;;;;;5113505;28;20098;-73
2021/03/07 01:50:27;;;;;;;13.50;5.28;;;2.50;87.20;;;;;;5111927;28;20123;-73
2021/03/07 01:52:53;;;;;;;8.50;4.65;;;2.50;87.00;;;;;;5113436;28;20016;-73
2021/03/07 01:55:23;;;;;;;13.82;5.45;;;2.50;87.00;;;;;;5112706;28;20030;-73
2021/03/07 01:57:59;;;;;;;12.10;5.37;;;2.40;86.80;;;;;;5113615;28;20016;-73
2021/03/07 02:00:25;;;;;;;14.23;5.40;;;2.40;86.80;;;;;;5112396;28;20273;-74
2021/03/07 02:02:51;;;;;;;11.93;4.75;;;2.40;86.60;;;;;;5113167;28;20111;-72
2021/03/07 02:05:18;;;;;;;12.60;5.13;;;2.40;86.40;;;;;;5112075;28;20036;-73
2021/03/07 02:07:44;;;;;;;12.43;4.90;;;2.40;86.40;;;;;;5113761;28;20024;-72
2021/03/07 02:10:15;;;;;;;12.27;4.95;;;2.30;86.30;;;;;;5113627;28;20065;-73
2021/03/07 02:12:41;;;;;;;17.13;5.10;;;2.30;86.20;;;;;;5112013;28;20008;-72
2021/03/07 02:15:09;;;;;;;14.70;5.18;;;2.20;86.10;;;;;;5113632;28;20038;-73
2021/03/07 02:17:36;;;;;;;14.32;5.47;;;2.20;86.40;;;;;;5112101;28;20039;-72
2021/03/07 02:20:04;;;;;;;9.68;5.00;;;2.20;86.40;;;;;;5111922;28;20015;-73
2021/03/07 02:22:43;;;;;;;10.60;5.25;;;2.20;86.70;;;;;;5113178;28;20055;-73
2021/03/07 02:25:12;;;;;;;12.55;5.35;;;2.10;86.40;;;;;;5111970;28;20038;-72
2021/03/07 02:27:38;;;;;;;14.30;4.63;;;2.10;86.40;;;;;;5113198;28;20522;-73
2021/03/07 02:30:10;;;;;;;10.43;4.78;;;2.00;86.50;;;;;;5111322;28;20015;-73
2021/03/07 02:32:40;;;;;;;7.70;4.68;;;2.00;86.50;;;;;;5113126;28;20016;-73
2021/03/07 02:35:13;;;;;;;16.67;5.78;;;2.00;86.70;;;;;;5113382;28;20034;-73
2021/03/07 02:37:44;;;;;;;11.80;5.18;;;2.00;87.20;;;;;;5113029;28;20095;-73
2021/03/07 02:40:12;;;;;;;10.25;5.10;;;2.00;87.20;;;;;;5111675;28;20161;-72
2021/03/07 02:42:41;;;;;;;12.07;5.32;;;2.00;87.30;;;;;;5111771;28;20022;-72
2021/03/07 02:45:10;;;;;;;9.15;4.65;;;2.00;87.40;;;;;;5111602;28;20351;-73
2021/03/07 02:47:37;;;;;;;8.98;4.47;;;2.00;87.40;;;;;;5111489;28;20023;-72
2021/03/07 02:50:12;;;;;;;9.90;4.55;;;2.00;87.50;;;;;;5112800;28;20011;-72
2021/03/07 02:52:43;;;;;;;10.13;4.90;;;2.00;87.40;;;;;;5112645;28;20145;-72
2021/03/07 02:55:10;;;;;;;13.57;5.93;;;2.00;87.60;;;;;;5111547;28;20035;-72
2021/03/07 02:57:38;;;;;;;10.93;5.22;;;1.90;87.50;;;;;;5112880;28;20467;-73
2021/03/07 03:00:06;;;;;;;13.38;5.20;;;1.90;88.20;;;;;;5112593;28;20019;-73
2021/03/07 03:02:32;;;;;;;10.98;4.85;;;1.90;87.50;;;;;;5112770;28;20012;-73
2021/03/07 03:04:59;;;;;;;9.63;4.78;;;1.90;87.60;;;;;;5110836;28;20100;-73
2021/03/07 03:07:27;;;;;;;11.23;4.88;;;1.90;87.60;;;;;;5112718;28;20108;-73
2021/03/07 03:09:55;;;;;;;12.40;5.90;;;1.80;87.60;;;;;;5111009;28;20020;-73
2021/03/07 03:12:23;;;;;;;11.77;4.88;;;1.80;87.70;;;;;;5112417;28;20026;-73
2021/03/07 03:14:49;;;;;;;18.30;5.28;;;1.80;87.60;;;;;;5111232;28;20023;-73
2021/03/07 03:17:16;;;;;;;10.48;5.28;;;1.80;87.80;;;;;;5112873;28;20444;-73
2021/03/07 03:19:44;;;;;;;10.40;4.40;;;1.80;87.70;;;;;;5112697;28;20023;-73
2021/03/07 03:22:12;;;;;;;16.92;5.72;;;1.70;87.60;;;;;;5112912;28;20030;-72
2021/03/07 03:24:38;;;;;;;13.63;4.47;;;1.70;87.70;;;;;;5111313;28;20114;-72
2021/03/07 03:27:05;;;;;;;10.38;5.13;;;1.70;87.80;;;;;;5110886;28;20019;-73
2021/03/07 03:29:32;;;;;;;14.25;5.00;;;1.70;87.70;;;;;;5111145;28;20016;-73
2021/03/07 03:31:59;;;;;;;11.95;5.40;;;1.70;87.90;;;;;;5112185;28;20034;-72
2021/03/07 03:34:26;;;;;;;13.80;5.18;;;1.70;87.90;;;;;;5111058;28;20027;-73
2021/03/07 03:36:51;;;;;;;10.15;5.07;;;1.70;88.10;;;;;;5110983;28;20027;-73
2021/03/07 03:39:20;;;;;;;12.00;5.00;;;1.70;88.40;;;;;;5112420;28;20020;-73
2021/03/07 03:41:51;;;;;;;17.58;4.80;;;1.70;88.40;;;;;;5110832;28;20410;-73
2021/03/07 03:44:20;;;;;;;11.05;4.80;;;1.70;88.50;;;;;;5112023;28;20023;-73
2021/03/07 03:46:50;;;;;;;9.77;5.10;;;1.70;88.50;;;;;;5110665;28;20030;-73
2021/03/07 03:49:23;;;;;;;10.40;4.35;;;1.70;89.20;;;;;;5112330;28;20022;-73
2021/03/07 03:51:54;;;;;;;12.60;4.32;;;1.60;88.60;;;;;;5110868;28;20011;-73
2021/03/07 03:54:21;;;;;;;8.98;4.90;;;1.70;88.70;;;;;;5112166;28;20016;-73
2021/03/07 03:56:49;;;;;;;12.20;4.93;;;1.70;88.70;;;;;;5112299;28;20031;-72
2021/03/07 03:59:16;;;;;;;9.90;4.88;;;1.70;88.40;;;;;;5110823;28;20027;-72
2021/03/07 04:01:42;;;;;;;9.85;4.03;;;1.70;88.60;;;;;;5112227;28;20052;-73
2021/03/07 04:04:09;;;;;;;9.10;4.68;;;1.70;88.70;;;;;;5110534;28;20134;-73
2021/03/07 04:06:34;;;;;;;11.63;4.75;;;1.60;88.50;;;;;;5112193;28;20104;-73
2021/03/07 04:09:02;;;;;;;15.45;4.90;;;1.60;88.40;;;;;;5111907;28;20012;-73
2021/03/07 04:11:27;;;;;;;12.45;4.57;;;1.60;88.40;;;;;;5110776;28;20019;-73
2021/03/07 04:13:54;;;;;;;9.38;4.80;;;1.60;88.20;;;;;;5114083;28;20060;-73
2021/03/07 04:16:20;;;;;;;8.32;4.00;;;1.60;88.10;;;;;;5115807;28;20011;-73
2021/03/07 04:18:47;;;;;;;9.43;3.72;;;1.50;87.70;;;;;;5115733;28;20472;-72
2021/03/07 04:21:14;;;;;;;8.27;4.13;;;1.50;87.40;;;;;;5115762;28;20482;-73
2021/03/07 04:23:40;;;;;;;12.15;4.07;;;1.50;87.10;;;;;;5114282;28;20027;-73
2021/03/07 04:26:06;;;;;;;12.27;4.53;;;1.40;87.20;;;;;;5115305;28;20031;-73
2021/03/07 04:28:32;;;;;;;8.52;3.88;;;1.40;87.30;;;;;;5114126;28;20474;-72
2021/03/07 04:30:58;;;;;;;10.73;4.28;;;1.40;87.40;;;;;;5113927;28;20012;-72
2021/03/07 04:33:24;;;;;;;13.02;4.15;;;1.40;87.40;;;;;;5113847;28;20018;-73
2021/03/07 04:35:50;;;;;;;8.57;4.35;;;1.40;87.00;;;;;;5115145;28;20023;-73
2021/03/07 04:38:16;;;;;;;11.15;3.90;;;1.40;86.90;;;;;;5113996;28;20019;-73
2021/03/07 04:40:42;;;;;;;13.57;4.07;;;1.40;87.10;;;;;;5113950;28;20023;-72
2021/03/07 04:43:08;;;;;;;8.40;3.90;;;1.40;87.20;;;;;;5113675;28;20020;-72
2021/03/07 04:45:34;;;;;;;12.23;5.10;;;1.30;87.00;;;;;;5113782;28;20344;-72
2021/03/07 04:48:00;;;;;;;9.43;3.63;;;1.30;87.10;;;;;;5114927;28;20016;-73
2021/03/07 04:50:26;;;;;;;9.95;4.20;;;1.30;86.90;;;;;;5113850;28;20046;-72
2021/03/07 04:52:51;;;;;;;9.10;3.38;;;1.30;87.00;;;;;;5114906;28;20015;-73
2021/03/07 04:55:17;;;;;;;10.38;3.92;;;1.20;86.90;;;;;;5113724;28;20372;-73
2021/03/07 04:57:43;;;;;;;10.88;4.18;;;1.20;86.70;;;;;;5113675;28;20015;-72
2021/03/07 05:00:11;;;;;;;11.43;3.65;;;1.20;86.50;;;;;;5114541;28;20020;-72
2021/03/07 05:02:37;;;;;;;12.00;4.03;;;1.20;86.80;;;;;;5113516;28;20360;-72
2021/03/07 05:05:04;;;;;;;10.07;4.28;;;1.20;87.00;;;;;;5113061;28;20349;-73
2021/03/07 05:07:30;;;;;;;11.30;4.10;;;1.20;87.10;;;;;;5114880;28;20019;-73
2021/03/07 05:09:55;;;;;;;11.57;4.35;;;1.20;87.30;;;;;;5113249;28;20018;-72
2021/03/07 05:12:22;;;;;;;13.07;5.10;;;1.20;87.30;;;;;;5113394;28;20019;-72
2021/03/07 05:14:48;;;;;;;10.60;4.35;;;1.20;87.30;;;;;;5114330;28;20359;-73
2021/03/07 05:17:13;;;;;;;8.40;4.05;;;1.20;87.20;;;;;;5113128;28;20019;-72
2021/03/07 05:19:39;;;;;;;12.05;3.83;;;1.20;87.20;;;;;;5113392;28;20023;-73
2021/03/07 05:22:04;;;;;;;9.70;4.60;;;1.20;87.10;;;;;;5113054;28;20054;-73
2021/03/07 05:24:30;;;;;;;10.70;4.68;;;1.30;87.20;;;;;;5114398;28;20016;-73
2021/03/07 05:27:05;;;;;;;11.00;4.53;;;1.30;87.50;;;;;;5114285;28;20401;-73
2021/03/07 05:29:34;;;;;;;11.73;4.50;;;1.30;87.70;;;;;;5114174;28;20042;-73
2021/03/07 05:32:00;;;;;;;8.00;3.85;;;1.40;87.70;;;;;;5112479;28;20011;-73
2021/03/07 05:34:25;;;;;;;10.38;4.70;;;1.40;88.50;;;;;;5114236;28;20068;-72
2021/03/07 05:36:51;;;;;;;9.80;4.00;;;1.50;87.70;;;;;;5113943;28;20019;-72
2021/03/07 05:39:17;;;;;;;7.65;4.03;;;1.50;87.70;;;;;;5114411;28;20148;-73
2021/03/07 05:41:42;;;;;;;8.90;3.65;;;1.50;87.60;;;;;;5114152;28;20461;-73
2021/03/07 05:44:09;;;;;;;11.95;3.95;;;1.60;87.70;;;;;;5112443;28;20012;-73
2021/03/07 05:46:36;;;;;;;10.30;3.75;;;1.60;87.60;;;;;;5114075;28;20030;-74
2021/03/07 05:49:04;;;;;;;8.23;4.22;;;1.70;87.70;;;;;;5112682;28;20024;-72
2021/03/07 05:51:30;;;;;;;10.93;4.07;;;1.70;87.70;;;;;;5112834;28;20055;-73
2021/03/07 05:53:56;;;;;;;12.25;3.75;;;1.80;87.90;;;;;;5113956;28;20470;-72
2021/03/07 05:56:21;;;;;;;7.63;3.65;;;1.90;88.00;;;;;;5114491;28;20027;-72
2021/03/07 05:58:49;;;;;;;9.85;3.58;;;1.90;87.70;;;;;;5112473;28;20027;-72
2021/03/07 06:01:14;;;;;;;7.20;4.05;;;2.00;87.70;;;;;;5112173;28;20020;-73
2021/03/07 06:03:40;;;;;;;11.23;3.97;;;2.10;87.60;;;;;;5112230;28;20020;-73
2021/03/07 06:06:06;;;;;;;9.90;4.93;;;2.10;87.40;;;;;;5111698;28;20039;-73
2021/03/07 06:08:32;;;;;;;8.38;3.63;;;2.20;87.40;;;;;;5114015;28;20091;-72
2021/03/07 06:10:57;;;;;;;7.43;3.17;;;2.20;87.20;;;;;;5111961;28;20020;-73
2021/03/07 06:13:23;;;;;;;10.93;3.33;;;2.30;87.20;;;;;;5113400;28;20696;-73
2021/03/07 06:16:04;;;;;;;12.38;4.07;;;2.40;87.10;;;;;;5113468;28;20047;-73
2021/03/07 06:18:40;;;;;;;8.43;4.78;;;2.40;87.00;;;;;;5111887;28;20016;-73
2021/03/07 06:21:34;;;;;;;8.50;3.55;;;2.50;86.80;;;;;;5111637;28;20011;-72
2021/03/07 06:24:02;;;;;;;10.35;3.80;;;2.60;86.70;;;;;;5112811;28;20016;-73
2021/03/07 06:26:28;;;;;;;8.82;4.00;;;2.60;86.70;;;;;;5112382;28;20031;-73
2021/03/07 06:29:11;;;;;;;11.20;4.07;;;2.60;86.50;;;;;;5111239;28;20011;-73
2021/03/07 06:31:40;;;;;;;10.07;4.22;;;2.70;86.30;;;;;;5111562;28;20016;-72
2021/03/07 06:34:05;;;;;;;10.93;5.20;;;2.70;86.00;;;;;;5112656;28;20023;-72
2021/03/07 06:36:31;;;;;;;9.60;5.60;;;2.70;85.60;;;;;;5111107;28;20045;-72
2021/03/07 06:38:59;;;;;;;9.15;4.15;;;2.70;85.50;;;;;;5111198;28;20080;-72
2021/03/07 06:41:30;;;;;;;13.40;4.82;;;2.70;85.50;;;;;;5112636;28;20020;-73
2021/03/07 06:44:12;;;;;;;10.48;4.05;;;2.70;85.60;;;;;;5111153;28;20026;-72
2021/03/07 06:46:40;;;;;;;4.93;2.83;;;2.70;85.30;;;;;;5111299;28;20034;-73
2021/03/07 06:49:05;;;;;;;7.53;3.75;;;2.80;85.20;;;;;;5111078;28;20089;-73
2021/03/07 06:51:35;;;;;;;8.60;3.70;;;2.80;85.00;;;;;;5112663;28;20667;-72
2021/03/07 06:54:15;;;;;;;6.75;3.60;;;2.80;86.80;;;;;;5112263;28;20012;-73
2021/03/07 06:56:45;;;;;;;7.47;3.50;;;2.70;85.20;;;;;;5112834;28;20432;-73
2021/03/07 06:59:16;;;;;;;6.72;4.10;;;2.60;84.40;;;;;;5111229;28;20011;-73
2021/03/07 07:01:43;;;;;;;7.40;4.05;;;2.60;84.00;;;;;;5112744;28;20112;-73
2021/03/07 07:04:10;;;;;;;6.30;3.60;;;2.60;84.60;;;;;;5111079;28;20444;-72
2021/03/07 07:06:38;;;;;;;8.65;3.53;;;2.60;84.70;;;;;;5111959;28;20055;-72
2021/03/07 07:09:06;;;;;;;6.13;3.65;;;2.60;85.40;;;;;;5110951;28;20023;-72
2021/03/07 07:11:46;;;;;;;8.55;4.15;;;2.70;84.90;;;;;;5112634;28;20023;-72
2021/03/07 07:14:13;;;;;;;11.50;5.28;;;2.70;85.10;;;;;;5111129;28;20016;-72
2021/03/07 07:16:39;;;;;;;11.05;5.35;;;2.70;85.40;;;;;;5112698;28;20077;-72
2021/03/07 07:19:05;;;;;;;8.38;4.65;;;2.80;85.50;;;;;;5111186;28;20367;-72
2021/03/07 07:21:31;;;;;;;7.40;3.70;;;2.80;85.80;;;;;;5112540;28;20433;-73
2021/03/07 07:23:57;;;;;;;10.18;5.63;;;2.90;85.80;;;;;;5112335;28;20023;-73
2021/03/07 07:26:22;;;;;;;11.45;5.15;;;2.90;86.30;;;;;;5111122;28;20491;-73
2021/03/07 07:28:48;;;;;;;9.27;5.30;;;3.00;85.70;;;;;;5110830;28;20157;-73
2021/03/07 07:31:22;;;;;;;8.10;5.50;;;3.10;85.90;;;;;;5110879;28;20023;-73
2021/03/07 07:34:08;;;;;;;15.40;5.85;;;3.10;85.40;;;;;;5112490;28;20015;-73
2021/03/07 07:36:40;;;;;;;9.68;4.80;;;3.20;85.50;;;;;;5111188;28;20032;-74
2021/03/07 07:39:08;;;;;;;9.02;3.30;;;3.30;84.90;;;;;;5110870;28;20023;-73
2021/03/07 07:41:37;;;;;;;10.13;4.68;;;3.40;85.00;;;;;;5110965;28;20020;-74
2021/03/07 07:44:06;;;;;;;7.38;4.60;;;3.50;84.80;;;;;;5110797;28;20129;-75
2021/03/07 07:46:31;;;;;;;8.68;4.35;;;3.60;84.60;;;;;;5110631;28;20577;-74
2021/03/07 07:48:59;;;;;;;11.48;4.80;;;3.70;84.00;;;;;;5114412;28;20072;-74
2021/03/07 07:51:37;;;;;;;8.02;4.00;;;3.80;84.00;;;;;;5116036;28;20027;-74
2021/03/07 07:54:04;;;;;;;12.20;5.50;;;4.00;83.20;;;;;;5114378;28;20467;-74
2021/03/07 07:56:44;;;;;;;7.38;4.80;;;4.10;82.60;;;;;;5114546;28;20064;-74
2021/03/07 07:59:13;;;;;;;9.13;3.95;;;4.30;81.90;;;;;;5114275;28;20063;-74
2021/03/07 08:01:57;;;;;;;7.20;4.17;;;4.40;81.40;;;;;;5115936;28;20114;-75
2021/03/07 08:04:29;;;;;;;9.18;4.32;;;4.50;80.90;;;;;;5114275;28;20031;-73
2021/03/07 08:06:55;;;;;;;10.07;4.03;;;4.60;80.20;;;;;;5113871;28;20097;-74
2021/03/07 08:09:39;;;;;;;10.50;4.55;;;4.70;79.90;;;;;;5114503;28;20023;-74
2021/03/07 08:12:42;;;;;;;10.10;4.10;;;4.80;79.00;;;;;;5115417;28;20047;-74
2021/03/07 08:15:26;;;;;;;10.88;4.47;;;4.90;78.50;;;;;;5114055;28;20344;-74
2021/03/07 08:17:52;;;;;;;8.27;4.10;;;4.90;78.00;;;;;;5114300;28;20375;-73
2021/03/07 08:20:44;;;;;;;7.35;3.05;;;5.00;77.80;;;;;;5115284;28;20444;-73
2021/03/07 08:23:20;;;;;;;9.70;3.75;;;5.10;78.20;;;;;;5113750;28;20020;-74
2021/03/07 08:25:46;;;;;;;9.07;4.00;;;5.20;77.70;;;;;;5113674;28;20023;-73
2021/03/07 08:28:26;;;;;;;9.30;4.43;;;5.20;77.60;;;;;;5113709;28;20015;-73
2021/03/07 08:30:56;;;;;;;9.68;4.18;;;5.30;77.90;;;;;;5115229;28;20091;-73
2021/03/07 08:33:34;;;;;;;10.77;4.47;;;5.40;76.50;;;;;;5115560;28;20031;-74
2021/03/07 08:36:20;;;;;;;7.22;3.70;;;5.50;76.40;;;;;;5113650;28;20022;-73
2021/03/07 08:38:54;;;;;;;7.78;3.67;;;5.50;77.40;;;;;;5113915;28;20019;-74
2021/03/07 08:41:25;;;;;;;7.25;3.53;;;5.70;77.90;;;;;;5115358;28;20087;-73
2021/03/07 08:43:51;;;;;;;11.25;3.78;;;5.90;78.40;;;;;;5115504;28;20114;-73
2021/03/07 08:46:20;;;;;;;7.05;3.42;;;6.00;77.40;;;;;;5114682;28;20020;-74
2021/03/07 08:48:52;;;;;;;6.97;3.35;;;6.10;76.30;;;;;;5113606;28;20026;-74
2021/03/07 08:51:27;;;;;;;6.93;3.00;;;6.20;75.90;;;;;;5114747;28;20103;-73
2021/03/07 08:54:00;;;;;;;8.98;4.15;;;6.30;75.50;;;;;;5114506;28;20464;-72
2021/03/07 08:56:25;;;;;;;7.75;3.58;;;6.40;72.90;;;;;;5114807;28;20042;-73
2021/03/07 08:58:52;;;;;;;8.55;3.97;;;6.50;71.30;;;;;;5114542;28;20483;-73
2021/03/07 09:01:18;;;;;;;7.32;3.50;;;6.50;70.80;;;;;;5113151;28;20486;-73
2021/03/07 09:03:54;;;;;;;11.35;3.58;;;6.60;70.00;;;;;;5114817;28;20095;-73
2021/03/07 09:06:20;;;;;;;8.93;4.20;;;6.50;68.10;;;;;;5114456;28;20039;-73
2021/03/07 09:08:46;;;;;;;7.68;3.35;;;6.50;66.00;;;;;;5113048;28;20012;-73
2021/03/07 09:11:11;;;;;;;7.15;3.90;;;6.60;63.50;;;;;;5113032;28;20030;-74
2021/03/07 09:13:50;;;;;;;6.93;2.60;;;6.60;61.80;;;;;;5114256;28;20015;-73
2021/03/07 09:16:16;;;;;;;6.90;2.50;;;6.70;62.20;;;;;;5114241;28;20026;-73
2021/03/07 09:18:42;;;;;;;5.80;2.90;;;6.90;59.60;;;;;;5113097;28;20012;-73
2021/03/07 09:21:12;;;;;;;5.63;2.10;;;7.00;59.10;;;;;;5113711;28;20015;-74
2021/03/07 09:23:43;;;;;;;4.15;2.08;;;7.20;58.70;;;;;;5110209;28;20016;-74
2021/03/07 09:26:15;;;;;;;5.35;2.25;;;7.30;55.00;;;;;;5111398;28;20109;-73
2021/03/07 09:28:54;;;;;;;3.42;1.83;;;7.30;55.80;;;;;;5109278;28;20026;-73
2021/03/07 09:31:31;;;;;;;3.45;2.45;;;7.50;55.60;;;;;;5110611;28;20012;-74
2021/03/07 09:33:58;;;;;;;4.70;1.98;;;7.60;55.70;;;;;;5117362;27;20008;-74
2021/03/07 09:36:26;;;;;;;3.45;1.50;;;7.80;54.20;;;;;;5112619;28;20051;-74
2021/03/07 09:38:52;;;;;;;4.65;1.42;;;8.10;57.60;;;;;;5112817;28;20032;-72
2021/03/07 09:41:46;;;;;;;2.20;0.88;;;8.30;67.00;;;;;;5108639;28;20019;-73
2021/03/07 09:44:22;;;;;;;4.07;1.25;;;8.50;68.90;;;;;;5111816;28;20463;-73
2021/03/07 09:46:52;;;;;;;2.40;0.90;;;8.70;69.60;;;;;;5112353;28;20077;-74
2021/03/07 09:49:23;;;;;;;2.22;0.70;;;8.70;71.40;;;;;;5109743;28;20076;-73
2021/03/07 09:51:50;;;;;;;2.88;1.00;;;8.80;74.00;;;;;;5112660;28;20030;-73
2021/03/07 09:54:17;;;;;;;2.63;1.27;;;8.90;71.20;;;;;;5112271;28;20015;-74
2021/03/07 09:56:44;;;;;;;4.57;1.55;;;9.00;67.20;;;;;;5111198;28;20486;-73
2021/03/07 09:59:11;;;;;;;5.22;1.85;;;9.10;60.40;;;;;;5112290;28;20486;-72
2021/03/07 10:01:59;;;;;;;3.92;1.58;;;9.20;55.10;;;;;;5111084;28;20368;-73
2021/03/07 10:04:35;;;;;;;4.65;1.75;;;9.30;52.00;;;;;;5110613;28;20019;-74
2021/03/07 10:07:10;;;;;;;2.83;1.45;;;9.30;49.60;;;;;;5109680;28;20452;-73
2021/03/07 10:10:08;;;;;;;4.55;1.80;;;9.20;50.80;;;;;;5112155;28;20007;-73
2021/03/07 10:12:56;;;;;;;3.22;1.73;;;9.20;49.80;;;;;;5111459;28;20073;-72
2021/03/07 10:15:33;;;;;;;2.85;1.30;;;9.10;52.50;;;;;;5108441;28;20012;-73
2021/03/07 10:18:13;;;;;;;3.80;1.90;;;9.10;59.30;;;;;;5109109;28;20020;-74
2021/03/07 10:20:40;;;;;;;;;;;9.30;59.90;;;;;;5108555;28;20345;-73
2021/03/07 10:23:06;;;;;;;3.97;1.75;;;9.40;52.80;;;;;;5111727;28;19912;-73
2021/03/07 10:25:36;;;;;;;3.97;2.05;;;9.60;52.70;;;;;;5110451;28;20037;-73
2021/03/07 10:28:04;;;;;;;5.07;2.25;;;9.90;50.60;;;;;;5108876;28;20027;-73
2021/03/07 10:30:31;;;;;;;4.28;1.90;;;10.20;48.40;;;;;;5112159;28;20016;-73
2021/03/07 10:33:06;;;;;;;2.63;1.25;;;10.40;44.50;;;;;;5112224;28;20046;-73
2021/03/07 10:35:32;;;;;;;3.35;1.85;;;10.40;50.40;;;;;;5107749;28;20020;-73
2021/03/07 10:37:57;;;;;;;4.18;2.10;;;10.60;48.30;;;;;;5111541;28;20072;-73
2021/03/07 10:40:33;;;;;;;5.15;1.55;;;10.90;48.40;;;;;;5111914;28;20031;-72
2021/03/07 10:43:02;;;;;;;3.45;1.60;;;11.20;44.10;;;;;;5112302;28;20020;-73
2021/03/07 10:45:29;;;;;;;4.97;2.22;;;11.20;58.40;;;;;;5112830;28;20106;-73
2021/03/07 10:48:06;;;;;;;5.65;1.60;;;11.40;48.80;;;;;;5111404;28;20016;-73
2021/03/07 10:50:32;;;;;;;3.55;1.00;;;11.60;46.90;;;;;;5112577;28;20472;-73
2021/03/07 10:52:58;;;;;;;3.95;1.45;;;11.60;62.80;;;;;;5112746;28;20045;-73
2021/03/07 10:55:25;;;;;;;2.58;1.35;;;11.70;55.80;;;;;;5112885;28;20023;-73
2021/03/07 10:57:51;;;;;;;3.13;1.50;;;11.50;49.40;;;;;;5112623;28;20090;-73
2021/03/07 11:00:17;;;;;;;3.58;1.25;;;11.50;51.90;;;;;;5112448;28;20055;-72
2021/03/07 11:02:44;;;;;;;1.52;0.82;;;11.80;41.70;;;;;;5112453;28;20020;-72
2021/03/07 11:05:14;;;;;;;4.22;1.30;;;11.90;44.10;;;;;;5110616;28;20131;-72
2021/03/07 11:07:41;;;;;;;3.85;1.35;;;11.90;43.60;;;;;;5112294;28;20375;-72
2021/03/07 11:10:08;;;;;;;2.13;1.17;;;11.80;42.70;;;;;;5111110;28;20073;-73
2021/03/07 11:12:35;;;;;;;2.45;1.05;;;11.70;51.50;;;;;;5112629;28;20090;-72
2021/03/07 11:15:01;;;;;;;2.47;1.20;;;11.70;51.60;;;;;;5112431;28;20019;-72
2021/03/07 11:17:27;;;;;;;2.85;1.20;;;11.60;46.30;;;;;;5112614;28;20098;-72
2021/03/07 11:19:52;;;;;;;3.33;0.80;;;11.40;50.20;;;;;;5111340;28;20107;-71
2021/03/07 11:22:18;;;;;;;2.85;0.90;;;11.20;60.00;;;;;;5114111;28;20023;-71
2021/03/07 11:24:44;;;;;;;1.50;0.60;;;11.20;67.50;;;;;;5116797;28;20038;-72
2021/03/07 11:27:09;;;;;;;4.30;1.30;;;11.20;72.30;;;;;;5113727;28;20055;-72
2021/03/07 11:29:35;;;;;;;6.28;1.67;;;11.00;61.20;;;;;;5094482;28;20080;-71
2021/03/07 11:32:00;;;;;;;3.13;0.85;;;10.90;63.90;;;;;;5094790;28;20058;-72
2021/03/07 11:34:26;;;;;;;4.15;1.00;;;10.80;71.40;;;;;;5095903;28;20103;-72
2021/03/07 11:36:51;;;;;;;2.20;0.80;;;10.90;54.20;;;;;;5094996;28;20368;-70
2021/03/07 11:39:17;;;;;;;5.63;1.60;;;10.90;61.00;;;;;;5096023;28;20099;-71
2021/03/07 11:41:43;;;;;;;3.80;1.52;;;10.90;57.00;;;;;;5099281;28;20592;-72
2021/03/07 11:44:08;;;;;;;3.45;1.30;;;10.90;54.00;;;;;;5097823;28;20074;-71
2021/03/07 11:46:34;;;;;;;2.35;1.00;;;11.00;52.30;;;;;;5115978;28;20035;-72
2021/03/07 11:49:00;;;;;;;4.20;1.50;;;11.20;63.50;;;;;;5115911;28;20012;-73
2021/03/07 11:51:25;;;;;;;5.47;1.60;;;11.20;47.10;;;;;;5116270;28;20102;-73
2021/03/07 11:53:51;;;;;;;6.55;2.03;;;11.10;44.50;;;;;;5114995;28;20016;-73
2021/03/07 11:56:16;;;;;;;5.43;1.83;;;11.00;43.40;;;;;;5115661;28;20104;-73
2021/03/07 11:58:42;;;;;;;6.47;2.33;;;10.80;45.80;;;;;;5116228;28;20076;-73
2021/03/07 12:01:07;;;;;;;5.32;2.10;;;10.80;44.60;;;;;;5116190;28;20424;-73
2021/03/07 12:03:33;;;;;;;6.68;2.13;;;10.70;43.90;;;;;;5116144;28;20422;-73
2021/03/07 12:05:59;;;;;;;4.70;2.00;;;10.80;44.10;;;;;;5115701;28;20046;-73
2021/03/07 12:08:25;;;;;;;4.55;1.52;;;11.10;45.90;;;;;;5114619;28;20024;-72
2021/03/07 12:10:50;;;;;;;1.85;0.80;;;11.10;49.00;;;;;;5115814;28;20378;-72
2021/03/07 12:13:16;;;;;;;6.35;1.60;;;11.10;64.60;;;;;;5115296;28;20026;-72
2021/03/07 12:15:41;;;;;;;6.10;2.88;;;11.00;50.70;;;;;;5115486;28;20020;-72
2021/03/07 12:18:07;;;;;;;5.70;1.77;;;10.80;45.60;;;;;;5114140;28;20016;-72
2021/03/07 12:20:32;;;;;;;3.13;1.70;;;10.60;44.40;;;;;;5115409;28;20046;-72
2021/03/07 12:22:58;;;;;;;5.40;2.00;;;10.40;44.90;;;;;;5115403;28;20020;-72
2021/03/07 12:25:24;;;;;;;3.88;1.65;;;10.30;44.50;;;;;;5115288;28;20027;-72
2021/03/07 12:27:49;;;;;;;6.50;1.92;;;10.40;44.00;;;;;;5114245;28;20436;-72
2021/03/07 12:30:16;;;;;;;4.38;1.52;;;10.30;45.30;;;;;;5115629;28;20455;-72
2021/03/07 12:32:41;;;;;;;4.68;2.25;;;10.30;49.90;;;;;;5115530;28;20071;-72
2021/03/07 12:35:07;;;;;;;3.33;2.00;;;10.30;49.60;;;;;;5114370;28;20204;-72
2021/03/07 12:37:33;;;;;;;4.28;1.83;;;10.10;57.10;;;;;;5114762;28;20019;-72
2021/03/07 12:39:59;;;;;;;4.47;1.98;;;10.00;48.10;;;;;;5115019;28;20027;-72
2021/03/07 12:42:25;;;;;;;4.32;2.25;;;9.80;47.40;;;;;;5113663;28;20019;-72
2021/03/07 12:44:53;;;;;;;5.55;1.88;;;9.60;47.90;;;;;;5115293;28;20061;-72
2021/03/07 12:47:19;;;;;;;5.22;2.20;;;9.50;49.30;;;;;;5114869;28;20448;-72
2021/03/07 12:49:44;;;;;;;6.15;2.00;;;9.40;47.00;;;;;;5115333;28;20054;-72
2021/03/07 12:52:10;;;;;;;6.18;2.45;;;9.30;61.50;;;;;;5114924;28;20027;-72
2021/03/07 12:54:35;;;;;;;5.32;1.80;;;9.30;65.10;;;;;;5115043;28;20131;-72
2021/03/07 12:57:01;;;;;;;3.92;2.13;;;9.30;56.30;;;;;;5115061;28;20019;-73